Terminal Aerodrome Forecast
Issued by NWS

Home | Current Version | Previous Version | Text Only | Print | Product List | Glossary Off
Versions: 1 2 3 4 5 6 7 8 9 10 11 12 13 14 15 16 17 18

000
FTUS43 KGRB 252300
TAFAUW
TAF
KAUW 252336Z 2600/2624 22007G13KT P6SM SCT200
     FM260200 26005KT P6SM SCT200
     FM260600 30005KT P6SM BKN200
     FM261600 29008G15KT P6SM BKN200=

USA.gov is the U.S. government's official web portal to all federal, state and local government web resources and services.